Holloway, Minnesota
Current Conditions -  °F | °C
As of 12:35 PM on Sunday 23 Nov 2014 (Local Time) from KAQP Reporting Station
Drizzle Drizzle  
Wind Chill: 32°   Ceiling: Unl
Heat Index: 37°   Visibility: 10mi
Dew Point: 36°   Wind: 7mph
Humidity: 93%   Direction: 280°W
Pressure: 29.48"   Gusts: NA
Location:  45.25°N, 95.91°W
Report Text: KAQP 231835Z AUTO 28006KT 10SM -DZ SCT043 SCT050 03/02 A2948 RMK AO2 P0001
Loading
Personal Weather Stations






























Interactive Weather Map New forecast layout! Learn more

10-Day Weather Forecast

Advertisements
Track Severe Weather on mobile